sensor_id;sensor_type;location;lat;lon;timestamp;P1;durP1;ratioP1;P2;durP2;ratioP2
34900;SDS011;21112;51.976;5.660;2023-05-07T00:01:20;6.90;;;2.40;;
34900;SDS011;21112;51.976;5.660;2023-05-07T00:03:47;5.32;;;2.42;;
34900;SDS011;21112;51.976;5.660;2023-05-07T00:06:14;7.30;;;2.30;;
34900;SDS011;21112;51.976;5.660;2023-05-07T00:08:40;5.05;;;2.30;;
34900;SDS011;21112;51.976;5.660;2023-05-07T00:11:08;5.43;;;2.20;;
34900;SDS011;21112;51.976;5.660;2023-05-07T00:13:34;3.90;;;1.90;;
34900;SDS011;21112;51.976;5.660;2023-05-07T00:16:01;7.10;;;2.50;;
34900;SDS011;21112;51.976;5.660;2023-05-07T00:18:27;4.13;;;2.08;;
34900;SDS011;21112;51.976;5.660;2023-05-07T00:20:54;4.80;;;2.20;;
34900;SDS011;21112;51.976;5.660;2023-05-07T00:23:21;4.70;;;2.22;;
34900;SDS011;21112;51.976;5.660;2023-05-07T00:25:47;6.97;;;2.13;;
34900;SDS011;21112;51.976;5.660;2023-05-07T00:28:15;3.95;;;1.98;;
34900;SDS011;21112;51.976;5.660;2023-05-07T00:30:42;5.70;;;2.07;;
34900;SDS011;21112;51.976;5.660;2023-05-07T00:33:08;5.82;;;2.35;;
34900;SDS011;21112;51.976;5.660;2023-05-07T00:35:34;4.50;;;2.30;;
34900;SDS011;21112;51.976;5.660;2023-05-07T00:38:01;6.60;;;2.30;;
34900;SDS011;21112;51.976;5.660;2023-05-07T00:40:27;3.97;;;1.83;;
34900;SDS011;21112;51.976;5.660;2023-05-07T00:42:54;4.78;;;2.30;;
34900;SDS011;21112;51.976;5.660;2023-05-07T00:45:24;5.00;;;2.22;;
34900;SDS011;21112;51.976;5.660;2023-05-07T00:47:53;3.55;;;1.90;;
34900;SDS011;21112;51.976;5.660;2023-05-07T00:50:20;3.60;;;2.00;;
34900;SDS011;21112;51.976;5.660;2023-05-07T00:52:47;4.93;;;2.03;;
34900;SDS011;21112;51.976;5.660;2023-05-07T00:55:13;4.10;;;1.85;;
34900;SDS011;21112;51.976;5.660;2023-05-07T00:57:40;3.92;;;1.90;;
34900;SDS011;21112;51.976;5.660;2023-05-07T01:00:07;5.85;;;2.58;;
34900;SDS011;21112;51.976;5.660;2023-05-07T01:02:35;5.50;;;2.40;;
34900;SDS011;21112;51.976;5.660;2023-05-07T01:05:02;4.97;;;2.10;;
34900;SDS011;21112;51.976;5.660;2023-05-07T01:07:31;4.78;;;2.20;;
34900;SDS011;21112;51.976;5.660;2023-05-07T01:09:58;4.07;;;1.90;;
34900;SDS011;21112;51.976;5.660;2023-05-07T01:12:24;5.22;;;2.22;;
34900;SDS011;21112;51.976;5.660;2023-05-07T01:14:52;4.25;;;2.20;;
34900;SDS011;21112;51.976;5.660;2023-05-07T01:17:19;5.47;;;2.20;;
34900;SDS011;21112;51.976;5.660;2023-05-07T01:19:47;6.65;;;1.98;;
34900;SDS011;21112;51.976;5.660;2023-05-07T01:22:17;4.20;;;2.35;;
34900;SDS011;21112;51.976;5.660;2023-05-07T01:24:48;4.50;;;2.13;;
34900;SDS011;21112;51.976;5.660;2023-05-07T01:27:15;6.07;;;2.60;;
34900;SDS011;21112;51.976;5.660;2023-05-07T01:29:41;6.18;;;2.75;;
34900;SDS011;21112;51.976;5.660;2023-05-07T01:32:08;5.25;;;2.45;;
34900;SDS011;21112;51.976;5.660;2023-05-07T01:34:34;5.00;;;2.47;;
34900;SDS011;21112;51.976;5.660;2023-05-07T01:37:02;4.38;;;2.20;;
34900;SDS011;21112;51.976;5.660;2023-05-07T01:39:29;6.55;;;2.55;;
34900;SDS011;21112;51.976;5.660;2023-05-07T01:41:57;5.03;;;2.45;;
34900;SDS011;21112;51.976;5.660;2023-05-07T01:44:24;3.88;;;2.20;;
34900;SDS011;21112;51.976;5.660;2023-05-07T01:46:51;5.82;;;2.42;;
34900;SDS011;21112;51.976;5.660;2023-05-07T01:49:17;4.65;;;2.38;;
34900;SDS011;21112;51.976;5.660;2023-05-07T01:51:44;4.47;;;2.15;;
34900;SDS011;21112;51.976;5.660;2023-05-07T01:54:11;4.75;;;2.50;;
34900;SDS011;21112;51.976;5.660;2023-05-07T01:56:37;6.60;;;2.92;;
34900;SDS011;21112;51.976;5.660;2023-05-07T01:59:05;4.50;;;2.25;;
34900;SDS011;21112;51.976;5.660;2023-05-07T02:01:31;5.97;;;2.33;;
34900;SDS011;21112;51.976;5.660;2023-05-07T02:03:58;4.63;;;2.47;;
34900;SDS011;21112;51.976;5.660;2023-05-07T02:06:24;4.45;;;2.40;;
34900;SDS011;21112;51.976;5.660;2023-05-07T02:08:51;5.43;;;2.65;;
34900;SDS011;21112;51.976;5.660;2023-05-07T02:11:17;6.18;;;2.40;;
34900;SDS011;21112;51.976;5.660;2023-05-07T02:13:44;7.30;;;2.40;;
34900;SDS011;21112;51.976;5.660;2023-05-07T02:16:12;5.07;;;2.65;;
34900;SDS011;21112;51.976;5.660;2023-05-07T02:18:39;5.43;;;2.83;;
34900;SDS011;21112;51.976;5.660;2023-05-07T02:21:05;7.63;;;2.67;;
34900;SDS011;21112;51.976;5.660;2023-05-07T02:23:32;7.65;;;2.90;;
34900;SDS011;21112;51.976;5.660;2023-05-07T02:25:58;5.70;;;2.60;;
34900;SDS011;21112;51.976;5.660;2023-05-07T02:28:24;5.35;;;2.47;;
34900;SDS011;21112;51.976;5.660;2023-05-07T02:33:27;6.22;;;3.10;;
34900;SDS011;21112;51.976;5.660;2023-05-07T02:35:54;5.25;;;2.70;;
34900;SDS011;21112;51.976;5.660;2023-05-07T02:38:21;6.22;;;3.08;;
34900;SDS011;21112;51.976;5.660;2023-05-07T02:40:47;5.45;;;2.58;;
34900;SDS011;21112;51.976;5.660;2023-05-07T02:43:14;6.43;;;3.17;;
34900;SDS011;21112;51.976;5.660;2023-05-07T02:45:40;6.20;;;3.00;;
34900;SDS011;21112;51.976;5.660;2023-05-07T02:48:08;6.32;;;2.70;;
34900;SDS011;21112;51.976;5.660;2023-05-07T02:50:36;6.43;;;2.80;;
34900;SDS011;21112;51.976;5.660;2023-05-07T02:53:03;5.55;;;2.72;;
34900;SDS011;21112;51.976;5.660;2023-05-07T02:55:29;10.30;;;3.10;;
34900;SDS011;21112;51.976;5.660;2023-05-07T02:57:56;5.97;;;3.00;;
34900;SDS011;21112;51.976;5.660;2023-05-07T03:00:23;6.15;;;2.40;;
34900;SDS011;21112;51.976;5.660;2023-05-07T03:02:49;6.10;;;2.67;;
34900;SDS011;21112;51.976;5.660;2023-05-07T03:05:16;5.95;;;3.03;;
34900;SDS011;21112;51.976;5.660;2023-05-07T03:07:44;5.57;;;3.08;;
34900;SDS011;21112;51.976;5.660;2023-05-07T03:10:11;6.20;;;2.80;;
34900;SDS011;21112;51.976;5.660;2023-05-07T03:12:37;6.88;;;2.78;;
34900;SDS011;21112;51.976;5.660;2023-05-07T03:15:04;5.82;;;2.80;;
34900;SDS011;21112;51.976;5.660;2023-05-07T03:17:33;5.72;;;2.90;;
34900;SDS011;21112;51.976;5.660;2023-05-07T03:19:59;5.20;;;2.70;;
34900;SDS011;21112;51.976;5.660;2023-05-07T03:22:26;6.82;;;2.85;;
34900;SDS011;21112;51.976;5.660;2023-05-07T03:24:54;6.25;;;3.03;;
34900;SDS011;21112;51.976;5.660;2023-05-07T03:27:20;10.67;;;2.93;;
34900;SDS011;21112;51.976;5.660;2023-05-07T03:29:47;5.88;;;2.90;;
34900;SDS011;21112;51.976;5.660;2023-05-07T03:32:13;5.70;;;3.08;;
34900;SDS011;21112;51.976;5.660;2023-05-07T03:34:40;7.70;;;3.45;;
34900;SDS011;21112;51.976;5.660;2023-05-07T03:37:07;6.88;;;3.10;;
34900;SDS011;21112;51.976;5.660;2023-05-07T03:39:33;7.35;;;3.05;;
34900;SDS011;21112;51.976;5.660;2023-05-07T03:42:01;6.93;;;2.97;;
34900;SDS011;21112;51.976;5.660;2023-05-07T03:44:28;7.20;;;2.65;;
34900;SDS011;21112;51.976;5.660;2023-05-07T03:46:55;8.82;;;3.10;;
34900;SDS011;21112;51.976;5.660;2023-05-07T03:49:21;6.60;;;3.00;;
34900;SDS011;21112;51.976;5.660;2023-05-07T03:51:48;7.07;;;3.42;;
34900;SDS011;21112;51.976;5.660;2023-05-07T03:54:21;5.97;;;3.30;;
34900;SDS011;21112;51.976;5.660;2023-05-07T03:56:48;8.30;;;3.30;;
34900;SDS011;21112;51.976;5.660;2023-05-07T03:59:15;6.63;;;3.28;;
34900;SDS011;21112;51.976;5.660;2023-05-07T04:01:42;5.17;;;2.70;;
34900;SDS011;21112;51.976;5.660;2023-05-07T04:04:08;6.43;;;3.10;;
34900;SDS011;21112;51.976;5.660;2023-05-07T04:06:35;6.43;;;3.65;;
34900;SDS011;21112;51.976;5.660;2023-05-07T04:09:01;6.70;;;3.50;;
34900;SDS011;21112;51.976;5.660;2023-05-07T04:11:28;7.15;;;3.42;;
34900;SDS011;21112;51.976;5.660;2023-05-07T04:13:54;7.00;;;3.47;;
34900;SDS011;21112;51.976;5.660;2023-05-07T04:16:23;7.85;;;3.78;;
34900;SDS011;21112;51.976;5.660;2023-05-07T04:18:49;7.28;;;3.67;;
34900;SDS011;21112;51.976;5.660;2023-05-07T04:21:16;7.22;;;3.72;;
34900;SDS011;21112;51.976;5.660;2023-05-07T04:23:42;7.95;;;3.63;;
34900;SDS011;21112;51.976;5.660;2023-05-07T04:26:09;8.20;;;3.97;;
34900;SDS011;21112;51.976;5.660;2023-05-07T04:28:36;6.82;;;3.83;;
34900;SDS011;21112;51.976;5.660;2023-05-07T04:31:02;7.25;;;3.70;;
34900;SDS011;21112;51.976;5.660;2023-05-07T04:33:30;8.27;;;4.10;;
34900;SDS011;21112;51.976;5.660;2023-05-07T04:35:57;7.60;;;4.05;;
34900;SDS011;21112;51.976;5.660;2023-05-07T04:38:27;8.57;;;4.07;;
34900;SDS011;21112;51.976;5.660;2023-05-07T04:40:54;7.53;;;4.03;;
34900;SDS011;21112;51.976;5.660;2023-05-07T04:43:20;8.63;;;4.38;;
34900;SDS011;21112;51.976;5.660;2023-05-07T04:45:47;7.32;;;3.95;;
34900;SDS011;21112;51.976;5.660;2023-05-07T04:48:14;9.05;;;4.43;;
34900;SDS011;21112;51.976;5.660;2023-05-07T04:50:42;7.72;;;3.95;;
34900;SDS011;21112;51.976;5.660;2023-05-07T04:53:09;8.38;;;4.53;;
34900;SDS011;21112;51.976;5.660;2023-05-07T04:55:35;7.60;;;3.78;;
34900;SDS011;21112;51.976;5.660;2023-05-07T04:58:02;8.27;;;4.38;;
34900;SDS011;21112;51.976;5.660;2023-05-07T05:00:29;7.83;;;3.93;;
34900;SDS011;21112;51.976;5.660;2023-05-07T05:02:56;8.27;;;3.97;;
34900;SDS011;21112;51.976;5.660;2023-05-07T05:05:23;7.90;;;3.85;;
34900;SDS011;21112;51.976;5.660;2023-05-07T05:07:51;7.22;;;4.10;;
34900;SDS011;21112;51.976;5.660;2023-05-07T05:10:20;8.38;;;4.57;;
34900;SDS011;21112;51.976;5.660;2023-05-07T05:12:47;8.80;;;4.40;;
34900;SDS011;21112;51.976;5.660;2023-05-07T05:15:13;12.23;;;3.80;;
34900;SDS011;21112;51.976;5.660;2023-05-07T05:17:40;7.40;;;3.78;;
34900;SDS011;21112;51.976;5.660;2023-05-07T05:20:06;7.43;;;4.30;;
34900;SDS011;21112;51.976;5.660;2023-05-07T05:22:34;7.55;;;3.92;;
34900;SDS011;21112;51.976;5.660;2023-05-07T05:25:02;9.10;;;4.35;;
34900;SDS011;21112;51.976;5.660;2023-05-07T05:27:29;9.38;;;3.90;;
34900;SDS011;21112;51.976;5.660;2023-05-07T05:29:55;8.02;;;4.07;;
34900;SDS011;21112;51.976;5.660;2023-05-07T05:32:22;7.53;;;3.80;;
34900;SDS011;21112;51.976;5.660;2023-05-07T05:34:49;6.43;;;3.45;;
34900;SDS011;21112;51.976;5.660;2023-05-07T05:37:16;7.60;;;4.07;;
34900;SDS011;21112;51.976;5.660;2023-05-07T05:39:42;8.20;;;4.43;;
34900;SDS011;21112;51.976;5.660;2023-05-07T05:42:10;7.88;;;4.22;;
34900;SDS011;21112;51.976;5.660;2023-05-07T05:44:37;7.97;;;3.80;;
34900;SDS011;21112;51.976;5.660;2023-05-07T05:47:03;9.07;;;4.25;;
34900;SDS011;21112;51.976;5.660;2023-05-07T05:49:30;8.38;;;4.10;;
34900;SDS011;21112;51.976;5.660;2023-05-07T05:51:56;6.93;;;4.22;;
34900;SDS011;21112;51.976;5.660;2023-05-07T05:54:23;7.10;;;4.07;;
34900;SDS011;21112;51.976;5.660;2023-05-07T05:56:49;9.57;;;4.68;;
34900;SDS011;21112;51.976;5.660;2023-05-07T05:59:17;7.95;;;4.13;;
34900;SDS011;21112;51.976;5.660;2023-05-07T06:01:44;7.35;;;4.00;;
34900;SDS011;21112;51.976;5.660;2023-05-07T06:04:10;7.85;;;4.15;;
34900;SDS011;21112;51.976;5.660;2023-05-07T06:06:37;8.77;;;4.28;;
34900;SDS011;21112;51.976;5.660;2023-05-07T06:09:03;8.73;;;4.38;;
34900;SDS011;21112;51.976;5.660;2023-05-07T06:11:30;7.28;;;4.05;;
34900;SDS011;21112;51.976;5.660;2023-05-07T06:13:57;13.05;;;4.32;;
34900;SDS011;21112;51.976;5.660;2023-05-07T06:16:25;10.52;;;4.55;;
34900;SDS011;21112;51.976;5.660;2023-05-07T06:18:52;7.95;;;3.75;;
34900;SDS011;21112;51.976;5.660;2023-05-07T06:21:18;12.73;;;4.57;;
34900;SDS011;21112;51.976;5.660;2023-05-07T06:23:45;8.23;;;4.32;;
34900;SDS011;21112;51.976;5.660;2023-05-07T06:26:11;7.82;;;4.20;;
34900;SDS011;21112;51.976;5.660;2023-05-07T06:28:38;9.05;;;4.68;;
34900;SDS011;21112;51.976;5.660;2023-05-07T06:31:11;8.23;;;4.25;;
34900;SDS011;21112;51.976;5.660;2023-05-07T06:33:39;9.60;;;4.47;;
34900;SDS011;21112;51.976;5.660;2023-05-07T06:38:35;8.88;;;4.30;;
34900;SDS011;21112;51.976;5.660;2023-05-07T06:41:02;9.40;;;4.82;;
34900;SDS011;21112;51.976;5.660;2023-05-07T06:43:28;9.63;;;4.65;;
34900;SDS011;21112;51.976;5.660;2023-05-07T06:45:55;7.65;;;4.38;;
34900;SDS011;21112;51.976;5.660;2023-05-07T06:48:22;10.43;;;4.75;;
34900;SDS011;21112;51.976;5.660;2023-05-07T06:50:50;9.13;;;4.47;;
34900;SDS011;21112;51.976;5.660;2023-05-07T06:53:16;9.25;;;4.75;;
34900;SDS011;21112;51.976;5.660;2023-05-07T06:55:45;9.77;;;5.15;;
34900;SDS011;21112;51.976;5.660;2023-05-07T06:58:12;13.57;;;5.45;;
34900;SDS011;21112;51.976;5.660;2023-05-07T07:00:38;9.77;;;5.15;;
34900;SDS011;21112;51.976;5.660;2023-05-07T07:03:05;8.85;;;4.70;;
34900;SDS011;21112;51.976;5.660;2023-05-07T07:05:32;14.27;;;6.28;;
34900;SDS011;21112;51.976;5.660;2023-05-07T07:08:00;10.32;;;5.43;;
34900;SDS011;21112;51.976;5.660;2023-05-07T07:10:27;9.13;;;5.55;;
34900;SDS011;21112;51.976;5.660;2023-05-07T07:12:53;12.43;;;5.82;;
34900;SDS011;21112;51.976;5.660;2023-05-07T07:15:20;11.52;;;5.95;;
34900;SDS011;21112;51.976;5.660;2023-05-07T07:17:47;10.25;;;5.55;;
34900;SDS011;21112;51.976;5.660;2023-05-07T07:20:14;10.15;;;5.78;;
34900;SDS011;21112;51.976;5.660;2023-05-07T07:22:41;8.38;;;4.80;;
34900;SDS011;21112;51.976;5.660;2023-05-07T07:25:10;8.15;;;4.60;;
34900;SDS011;21112;51.976;5.660;2023-05-07T07:27:37;8.00;;;4.55;;
34900;SDS011;21112;51.976;5.660;2023-05-07T07:30:06;8.95;;;4.55;;
34900;SDS011;21112;51.976;5.660;2023-05-07T07:32:33;10.10;;;5.07;;
34900;SDS011;21112;51.976;5.660;2023-05-07T07:35:04;9.82;;;5.15;;
34900;SDS011;21112;51.976;5.660;2023-05-07T07:37:30;10.60;;;5.35;;
34900;SDS011;21112;51.976;5.660;2023-05-07T07:39:57;9.73;;;4.45;;
34900;SDS011;21112;51.976;5.660;2023-05-07T07:42:27;9.30;;;4.65;;
34900;SDS011;21112;51.976;5.660;2023-05-07T07:44:59;10.23;;;5.88;;
34900;SDS011;21112;51.976;5.660;2023-05-07T07:47:26;10.20;;;5.57;;
34900;SDS011;21112;51.976;5.660;2023-05-07T07:49:55;8.88;;;4.93;;
34900;SDS011;21112;51.976;5.660;2023-05-07T07:52:29;10.25;;;5.63;;
34900;SDS011;21112;51.976;5.660;2023-05-07T07:54:55;8.90;;;5.13;;
34900;SDS011;21112;51.976;5.660;2023-05-07T07:57:23;10.98;;;5.40;;
34900;SDS011;21112;51.976;5.660;2023-05-07T07:59:52;14.02;;;5.32;;
34900;SDS011;21112;51.976;5.660;2023-05-07T08:02:19;12.80;;;5.53;;
34900;SDS011;21112;51.976;5.660;2023-05-07T08:04:45;11.85;;;5.28;;
34900;SDS011;21112;51.976;5.660;2023-05-07T08:07:15;11.13;;;6.00;;
34900;SDS011;21112;51.976;5.660;2023-05-07T08:09:43;11.00;;;5.85;;
34900;SDS011;21112;51.976;5.660;2023-05-07T08:12:19;10.05;;;5.78;;
34900;SDS011;21112;51.976;5.660;2023-05-07T08:14:45;10.45;;;5.65;;
34900;SDS011;21112;51.976;5.660;2023-05-07T08:17:26;11.60;;;6.43;;
34900;SDS011;21112;51.976;5.660;2023-05-07T08:19:55;10.80;;;5.63;;
34900;SDS011;21112;51.976;5.660;2023-05-07T08:22:21;11.73;;;6.30;;
34900;SDS011;21112;51.976;5.660;2023-05-07T08:24:48;10.40;;;5.88;;
34900;SDS011;21112;51.976;5.660;2023-05-07T08:27:14;14.02;;;6.85;;
34900;SDS011;21112;51.976;5.660;2023-05-07T08:29:41;16.13;;;6.95;;
34900;SDS011;21112;51.976;5.660;2023-05-07T08:32:13;13.77;;;7.18;;
34900;SDS011;21112;51.976;5.660;2023-05-07T08:34:44;14.10;;;6.68;;
34900;SDS011;21112;51.976;5.660;2023-05-07T08:37:12;11.73;;;6.22;;
34900;SDS011;21112;51.976;5.660;2023-05-07T08:39:38;12.70;;;6.60;;
34900;SDS011;21112;51.976;5.660;2023-05-07T08:42:05;13.57;;;6.90;;
34900;SDS011;21112;51.976;5.660;2023-05-07T08:44:33;14.70;;;6.95;;
34900;SDS011;21112;51.976;5.660;2023-05-07T08:47:00;13.20;;;7.22;;
34900;SDS011;21112;51.976;5.660;2023-05-07T08:49:31;12.70;;;7.18;;
34900;SDS011;21112;51.976;5.660;2023-05-07T08:52:07;13.38;;;6.60;;
34900;SDS011;21112;51.976;5.660;2023-05-07T08:54:33;13.38;;;6.85;;
34900;SDS011;21112;51.976;5.660;2023-05-07T08:57:03;13.93;;;6.88;;
34900;SDS011;21112;51.976;5.660;2023-05-07T08:59:30;14.18;;;7.05;;
34900;SDS011;21112;51.976;5.660;2023-05-07T09:01:56;11.75;;;7.40;;
34900;SDS011;21112;51.976;5.660;2023-05-07T09:04:25;11.48;;;6.50;;
34900;SDS011;21112;51.976;5.660;2023-05-07T09:09:29;13.10;;;6.78;;
34900;SDS011;21112;51.976;5.660;2023-05-07T09:12:01;14.18;;;8.02;;
34900;SDS011;21112;51.976;5.660;2023-05-07T09:14:28;11.98;;;7.03;;
34900;SDS011;21112;51.976;5.660;2023-05-07T09:16:57;11.57;;;6.68;;
34900;SDS011;21112;51.976;5.660;2023-05-07T09:19:24;12.63;;;6.93;;
34900;SDS011;21112;51.976;5.660;2023-05-07T09:21:57;14.48;;;6.85;;
34900;SDS011;21112;51.976;5.660;2023-05-07T09:24:25;14.75;;;6.93;;
34900;SDS011;21112;51.976;5.660;2023-05-07T09:26:53;11.70;;;6.75;;
34900;SDS011;21112;51.976;5.660;2023-05-07T09:29:20;14.65;;;7.43;;
34900;SDS011;21112;51.976;5.660;2023-05-07T09:31:47;14.05;;;7.13;;
34900;SDS011;21112;51.976;5.660;2023-05-07T09:34:13;15.35;;;7.45;;
34900;SDS011;21112;51.976;5.660;2023-05-07T09:36:40;13.85;;;6.40;;
34900;SDS011;21112;51.976;5.660;2023-05-07T09:39:06;20.17;;;7.75;;
34900;SDS011;21112;51.976;5.660;2023-05-07T09:41:36;11.93;;;6.72;;
34900;SDS011;21112;51.976;5.660;2023-05-07T09:44:09;15.35;;;6.68;;
34900;SDS011;21112;51.976;5.660;2023-05-07T09:46:36;12.85;;;7.15;;
34900;SDS011;21112;51.976;5.660;2023-05-07T09:49:03;15.40;;;6.88;;
34900;SDS011;21112;51.976;5.660;2023-05-07T09:51:36;12.70;;;5.88;;
34900;SDS011;21112;51.976;5.660;2023-05-07T09:54:05;14.88;;;6.63;;
34900;SDS011;21112;51.976;5.660;2023-05-07T09:56:34;12.02;;;6.70;;
34900;SDS011;21112;51.976;5.660;2023-05-07T09:59:02;15.10;;;7.20;;
34900;SDS011;21112;51.976;5.660;2023-05-07T10:01:30;16.35;;;6.93;;
34900;SDS011;21112;51.976;5.660;2023-05-07T10:04:01;15.10;;;6.82;;
34900;SDS011;21112;51.976;5.660;2023-05-07T10:06:28;11.70;;;6.60;;
34900;SDS011;21112;51.976;5.660;2023-05-07T10:08:55;14.15;;;6.25;;
34900;SDS011;21112;51.976;5.660;2023-05-07T10:11:22;11.52;;;6.25;;
34900;SDS011;21112;51.976;5.660;2023-05-07T10:13:51;11.70;;;5.97;;
34900;SDS011;21112;51.976;5.660;2023-05-07T10:16:21;16.00;;;6.30;;
34900;SDS011;21112;51.976;5.660;2023-05-07T10:18:52;11.90;;;6.32;;
34900;SDS011;21112;51.976;5.660;2023-05-07T10:21:23;15.07;;;6.43;;
34900;SDS011;21112;51.976;5.660;2023-05-07T10:23:53;12.68;;;6.10;;
34900;SDS011;21112;51.976;5.660;2023-05-07T10:26:23;10.27;;;5.82;;
34900;SDS011;21112;51.976;5.660;2023-05-07T10:28:57;11.63;;;6.00;;
34900;SDS011;21112;51.976;5.660;2023-05-07T10:31:38;11.32;;;5.85;;
34900;SDS011;21112;51.976;5.660;2023-05-07T10:34:08;13.02;;;6.22;;
34900;SDS011;21112;51.976;5.660;2023-05-07T10:36:36;12.38;;;5.95;;
34900;SDS011;21112;51.976;5.660;2023-05-07T10:39:04;11.20;;;6.25;;
34900;SDS011;21112;51.976;5.660;2023-05-07T10:41:31;13.98;;;5.60;;
34900;SDS011;21112;51.976;5.660;2023-05-07T10:44:04;11.15;;;6.15;;
34900;SDS011;21112;51.976;5.660;2023-05-07T10:46:31;12.85;;;6.65;;
34900;SDS011;21112;51.976;5.660;2023-05-07T10:49:06;12.00;;;5.80;;
34900;SDS011;21112;51.976;5.660;2023-05-07T10:51:33;13.05;;;6.95;;
34900;SDS011;21112;51.976;5.660;2023-05-07T10:54:18;13.10;;;6.07;;
34900;SDS011;21112;51.976;5.660;2023-05-07T10:56:45;16.65;;;6.18;;
34900;SDS011;21112;51.976;5.660;2023-05-07T11:02:00;12.70;;;6.40;;
34900;SDS011;21112;51.976;5.660;2023-05-07T11:04:29;11.73;;;6.47;;
34900;SDS011;21112;51.976;5.660;2023-05-07T11:09:57;11.57;;;6.85;;
34900;SDS011;21112;51.976;5.660;2023-05-07T11:15:11;11.02;;;6.25;;
34900;SDS011;21112;51.976;5.660;2023-05-07T11:23:57;10.73;;;6.20;;
34900;SDS011;21112;51.976;5.660;2023-05-07T11:26:24;10.63;;;6.35;;
34900;SDS011;21112;51.976;5.660;2023-05-07T11:28:56;13.90;;;7.07;;
34900;SDS011;21112;51.976;5.660;2023-05-07T11:31:26;13.90;;;6.97;;
34900;SDS011;21112;51.976;5.660;2023-05-07T11:33:59;14.25;;;5.88;;
34900;SDS011;21112;51.976;5.660;2023-05-07T11:36:31;12.40;;;6.25;;
34900;SDS011;21112;51.976;5.660;2023-05-07T11:38:59;13.57;;;6.03;;
34900;SDS011;21112;51.976;5.660;2023-05-07T11:41:35;13.05;;;6.28;;
34900;SDS011;21112;51.976;5.660;2023-05-07T11:44:02;11.00;;;5.88;;
34900;SDS011;21112;51.976;5.660;2023-05-07T11:46:29;9.98;;;5.70;;
34900;SDS011;21112;51.976;5.660;2023-05-07T11:48:56;12.00;;;6.03;;
34900;SDS011;21112;51.976;5.660;2023-05-07T11:51:24;12.75;;;5.63;;
34900;SDS011;21112;51.976;5.660;2023-05-07T11:53:53;9.45;;;5.18;;
34900;SDS011;21112;51.976;5.660;2023-05-07T11:56:23;9.35;;;5.35;;
34900;SDS011;21112;51.976;5.660;2023-05-07T11:58:57;12.65;;;5.07;;
34900;SDS011;21112;51.976;5.660;2023-05-07T12:01:26;10.38;;;4.88;;
34900;SDS011;21112;51.976;5.660;2023-05-07T12:03:52;9.85;;;5.20;;
34900;SDS011;21112;51.976;5.660;2023-05-07T12:06:21;10.05;;;5.22;;
34900;SDS011;21112;51.976;5.660;2023-05-07T12:08:47;10.77;;;5.03;;
34900;SDS011;21112;51.976;5.660;2023-05-07T12:11:14;12.80;;;5.15;;
34900;SDS011;21112;51.976;5.660;2023-05-07T12:13:47;12.02;;;5.40;;
34900;SDS011;21112;51.976;5.660;2023-05-07T12:18:40;9.55;;;4.65;;
34900;SDS011;21112;51.976;5.660;2023-05-07T12:21:14;10.60;;;5.25;;
34900;SDS011;21112;51.976;5.660;2023-05-07T12:23:44;9.68;;;5.50;;
34900;SDS011;21112;51.976;5.660;2023-05-07T12:26:26;11.45;;;5.22;;
34900;SDS011;21112;51.976;5.660;2023-05-07T12:28:56;9.32;;;5.18;;
34900;SDS011;21112;51.976;5.660;2023-05-07T12:31:25;10.05;;;5.13;;
34900;SDS011;21112;51.976;5.660;2023-05-07T12:34:02;10.70;;;5.22;;
34900;SDS011;21112;51.976;5.660;2023-05-07T12:36:36;10.05;;;5.18;;
34900;SDS011;21112;51.976;5.660;2023-05-07T12:39:13;11.38;;;4.88;;
34900;SDS011;21112;51.976;5.660;2023-05-07T12:41:57;13.20;;;5.30;;
34900;SDS011;21112;51.976;5.660;2023-05-07T12:44:35;10.80;;;4.70;;
34900;SDS011;21112;51.976;5.660;2023-05-07T12:47:03;10.55;;;4.97;;
34900;SDS011;21112;51.976;5.660;2023-05-07T12:49:36;10.05;;;5.32;;
34900;SDS011;21112;51.976;5.660;2023-05-07T12:52:05;9.93;;;5.15;;
34900;SDS011;21112;51.976;5.660;2023-05-07T12:59:47;12.23;;;5.35;;
34900;SDS011;21112;51.976;5.660;2023-05-07T13:02:31;10.38;;;5.50;;
34900;SDS011;21112;51.976;5.660;2023-05-07T13:05:03;10.90;;;5.57;;
34900;SDS011;21112;51.976;5.660;2023-05-07T13:07:41;9.02;;;5.70;;
34900;SDS011;21112;51.976;5.660;2023-05-07T13:10:21;11.25;;;5.82;;
34900;SDS011;21112;51.976;5.660;2023-05-07T13:12:48;12.05;;;5.28;;
34900;SDS011;21112;51.976;5.660;2023-05-07T13:15:16;12.60;;;5.50;;
34900;SDS011;21112;51.976;5.660;2023-05-07T13:17:42;9.40;;;4.85;;
34900;SDS011;21112;51.976;5.660;2023-05-07T13:20:09;11.82;;;5.88;;
34900;SDS011;21112;51.976;5.660;2023-05-07T13:22:39;12.30;;;6.63;;
34900;SDS011;21112;51.976;5.660;2023-05-07T13:25:05;11.25;;;6.50;;
34900;SDS011;21112;51.976;5.660;2023-05-07T13:27:32;9.48;;;5.40;;
34900;SDS011;21112;51.976;5.660;2023-05-07T13:30:00;14.52;;;6.30;;
34900;SDS011;21112;51.976;5.660;2023-05-07T13:32:28;11.07;;;6.03;;
34900;SDS011;21112;51.976;5.660;2023-05-07T13:37:24;10.25;;;6.05;;
34900;SDS011;21112;51.976;5.660;2023-05-07T13:39:53;11.52;;;5.65;;
34900;SDS011;21112;51.976;5.660;2023-05-07T13:42:21;14.95;;;6.45;;
34900;SDS011;21112;51.976;5.660;2023-05-07T13:44:48;12.43;;;6.00;;
34900;SDS011;21112;51.976;5.660;2023-05-07T13:47:14;9.48;;;5.38;;
34900;SDS011;21112;51.976;5.660;2023-05-07T13:49:42;10.05;;;5.38;;
34900;SDS011;21112;51.976;5.660;2023-05-07T13:52:09;11.00;;;5.25;;
34900;SDS011;21112;51.976;5.660;2023-05-07T13:54:38;14.07;;;5.78;;
34900;SDS011;21112;51.976;5.660;2023-05-07T13:57:05;13.38;;;5.65;;
34900;SDS011;21112;51.976;5.660;2023-05-07T13:59:34;9.70;;;5.85;;
34900;SDS011;21112;51.976;5.660;2023-05-07T14:02:00;13.10;;;5.88;;
34900;SDS011;21112;51.976;5.660;2023-05-07T14:04:31;10.40;;;5.80;;
34900;SDS011;21112;51.976;5.660;2023-05-07T14:07:00;12.70;;;5.90;;
34900;SDS011;21112;51.976;5.660;2023-05-07T14:09:26;9.38;;;5.65;;
34900;SDS011;21112;51.976;5.660;2023-05-07T14:11:55;11.48;;;6.25;;
34900;SDS011;21112;51.976;5.660;2023-05-07T14:14:26;11.95;;;5.75;;
34900;SDS011;21112;51.976;5.660;2023-05-07T14:16:52;14.10;;;5.50;;
34900;SDS011;21112;51.976;5.660;2023-05-07T14:19:19;13.55;;;6.05;;
34900;SDS011;21112;51.976;5.660;2023-05-07T14:24:20;8.20;;;4.97;;
34900;SDS011;21112;51.976;5.660;2023-05-07T14:26:46;11.70;;;6.32;;
34900;SDS011;21112;51.976;5.660;2023-05-07T14:29:18;11.55;;;5.93;;
34900;SDS011;21112;51.976;5.660;2023-05-07T14:31:49;14.32;;;7.28;;
34900;SDS011;21112;51.976;5.660;2023-05-07T14:34:16;11.90;;;6.40;;
34900;SDS011;21112;51.976;5.660;2023-05-07T14:36:42;16.42;;;6.65;;
34900;SDS011;21112;51.976;5.660;2023-05-07T14:39:09;15.82;;;7.03;;
34900;SDS011;21112;51.976;5.660;2023-05-07T14:41:37;11.70;;;6.72;;
34900;SDS011;21112;51.976;5.660;2023-05-07T14:44:04;12.93;;;6.65;;
34900;SDS011;21112;51.976;5.660;2023-05-07T14:46:36;16.88;;;6.72;;
34900;SDS011;21112;51.976;5.660;2023-05-07T14:49:04;12.93;;;5.97;;
34900;SDS011;21112;51.976;5.660;2023-05-07T14:51:31;11.35;;;6.22;;
34900;SDS011;21112;51.976;5.660;2023-05-07T14:53:58;14.75;;;6.35;;
34900;SDS011;21112;51.976;5.660;2023-05-07T14:56:25;12.93;;;6.57;;
34900;SDS011;21112;51.976;5.660;2023-05-07T14:58:55;12.50;;;6.55;;
34900;SDS011;21112;51.976;5.660;2023-05-07T15:01:22;14.40;;;6.40;;
34900;SDS011;21112;51.976;5.660;2023-05-07T15:03:48;12.35;;;6.78;;
34900;SDS011;21112;51.976;5.660;2023-05-07T15:06:22;12.52;;;6.85;;
34900;SDS011;21112;51.976;5.660;2023-05-07T15:08:49;12.02;;;6.68;;
34900;SDS011;21112;51.976;5.660;2023-05-07T15:11:16;13.90;;;6.18;;
34900;SDS011;21112;51.976;5.660;2023-05-07T15:13:45;14.93;;;6.97;;
34900;SDS011;21112;51.976;5.660;2023-05-07T15:16:14;11.15;;;6.10;;
34900;SDS011;21112;51.976;5.660;2023-05-07T15:18:40;12.00;;;6.40;;
34900;SDS011;21112;51.976;5.660;2023-05-07T15:21:09;27.98;;;14.40;;